Time,TemperatureF,DewpointF,PressureIn,WindDirection,WindDirectionDegrees,WindSpeedMPH,WindSpeedGustMPH,Humidity,HourlyPrecipIn,Conditions,Clouds,dailyrainin,SolarRadiationWatts/m^2,SoftwareType,DateUTC
2013-03-04 00:00:00,20.4,12.2,30.14,WNW,291,6.0,11.0,70,0.00,,,0.00,0,Wunderground v.1.15,2013-03-04 05:00:00,
2013-03-04 00:05:00,20.4,12.2,30.14,West,268,9.0,20.0,70,0.00,,,0.00,0,Wunderground v.1.15,2013-03-04 05:05:00,
2013-03-04 00:10:00,20.3,11.7,30.14,WSW,242,10.0,10.0,69,0.00,,,0.00,0,Wunderground v.1.15,2013-03-04 05:10:00,
2013-03-04 00:15:00,20.2,11.7,30.14,NW,312,10.0,10.0,69,0.00,,,0.00,0,Wunderground v.1.15,2013-03-04 05:15:00,
2013-03-04 00:20:00,20.1,11.6,30.13,NW,309,11.0,11.0,69,0.00,,,0.00,0,Wunderground v.1.15,2013-03-04 05:20:00,
2013-03-04 00:25:00,20.0,11.5,30.13,NW,322,11.0,11.0,69,0.00,,,0.00,0,Wunderground v.1.15,2013-03-04 05:25:00,
2013-03-04 00:35:00,19.8,10.9,30.13,NW,326,10.0,11.0,68,0.00,,,0.00,0,Wunderground v.1.15,2013-03-04 05:35:00,
2013-03-04 00:45:00,19.8,10.6,30.13,NW,309,12.0,12.0,67,0.00,,,0.00,0,Wunderground v.1.15,2013-03-04 05:45:00,
2013-03-04 00:54:00,19.7,10.5,30.13,WNW,291,10.0,19.0,67,0.00,,,0.00,0,Wunderground v.1.15,2013-03-04 05:54:00,
2013-03-04 01:00:00,19.7,10.5,30.14,NW,315,10.0,15.0,67,0.00,,,0.00,0,Wunderground v.1.15,2013-03-04 06:00:00,
2013-03-04 01:10:00,19.8,10.6,30.14,NW,306,12.0,12.0,67,0.00,,,0.00,0,Wunderground v.1.15,2013-03-04 06:10:00,
2013-03-04 01:15:00,19.7,10.5,30.13,West,271,12.0,12.0,67,0.00,,,0.00,0,Wunderground v.1.15,2013-03-04 06:15:00,
2013-03-04 01:25:00,19.8,10.9,30.14,WNW,301,13.0,13.0,68,0.00,,,0.00,0,Wunderground v.1.15,2013-03-04 06:25:00,
2013-03-04 01:30:00,19.9,11.0,30.14,WNW,299,12.0,12.0,68,0.00,,,0.00,0,Wunderground v.1.15,2013-03-04 06:30:00,
2013-03-04 01:35:00,19.9,11.0,30.14,WNW,296,11.0,12.0,68,0.00,,,0.00,0,Wunderground v.1.15,2013-03-04 06:35:00,
2013-03-04 01:40:00,19.9,11.0,30.14,WNW,286,11.0,11.0,68,0.00,,,0.00,0,Wunderground v.1.15,2013-03-04 06:40:00,
2013-03-04 01:49:00,19.9,11.4,30.14,WNW,294,12.0,12.0,69,0.00,,,0.00,0,Wunderground v.1.15,2013-03-04 06:49:00,
2013-03-04 01:55:00,19.9,11.4,30.14,NW,311,11.0,12.0,69,0.00,,,0.00,0,Wunderground v.1.15,2013-03-04 06:55:00,
2013-03-04 02:00:00,19.9,11.0,30.14,NW,323,11.0,11.0,68,0.00,,,0.00,0,Wunderground v.1.15,2013-03-04 07:00:00,
2013-03-04 02:09:00,20.1,11.2,30.14,NNW,336,13.0,13.0,68,0.00,,,0.00,0,Wunderground v.1.15,2013-03-04 07:09:00,
2013-03-04 02:15:00,20.1,11.6,30.15,West,281,13.0,13.0,69,0.00,,,0.00,0,Wunderground v.1.15,2013-03-04 07:15:00,
2013-03-04 02:25:00,20.1,11.6,30.14,WSW,245,12.0,13.0,69,0.00,,,0.00,0,Wunderground v.1.15,2013-03-04 07:25:00,
2013-03-04 02:34:00,20.1,11.6,30.14,WNW,287,13.0,15.0,69,0.00,,,0.00,0,Wunderground v.1.15,2013-03-04 07:34:00,
2013-03-04 02:39:00,20.2,11.7,30.14,West,264,13.0,16.0,69,0.00,,,0.00,0,Wunderground v.1.15,2013-03-04 07:39:00,
2013-03-04 02:45:00,20.1,11.6,30.15,North,349,13.0,22.0,69,0.00,,,0.00,0,Wunderground v.1.15,2013-03-04 07:45:00,
2013-03-04 02:50:00,20.1,11.6,30.15,SSW,210,13.0,13.0,69,0.00,,,0.00,0,Wunderground v.1.15,2013-03-04 07:50:00,
2013-03-04 02:55:00,20.1,11.6,30.15,North,355,12.0,15.0,69,0.00,,,0.00,0,Wunderground v.1.15,2013-03-04 07:55:00,
2013-03-04 03:00:00,20.2,11.7,30.15,NNW,338,12.0,12.0,69,0.00,,,0.00,0,Wunderground v.1.15,2013-03-04 08:00:00,
2013-03-04 03:10:00,20.2,11.7,30.15,WNW,283,12.0,14.0,69,0.00,,,0.00,0,Wunderground v.1.15,2013-03-04 08:10:00,
2013-03-04 03:20:00,20.2,11.7,30.15,West,269,11.0,14.0,69,0.00,,,0.00,0,Wunderground v.1.15,2013-03-04 08:20:00,
2013-03-04 03:25:00,20.2,11.7,30.15,NW,311,11.0,14.0,69,0.00,,,0.00,0,Wunderground v.1.15,2013-03-04 08:25:00,
2013-03-04 03:30:00,20.2,11.7,30.14,WSW,242,11.0,13.0,69,0.00,,,0.00,0,Wunderground v.1.15,2013-03-04 08:30:00,
2013-03-04 03:40:00,20.2,11.7,30.15,North,360,12.0,17.0,69,0.00,,,0.00,0,Wunderground v.1.15,2013-03-04 08:40:00,
2013-03-04 03:45:00,20.2,11.7,30.15,NW,323,11.0,17.0,69,0.00,,,0.00,0,Wunderground v.1.15,2013-03-04 08:45:00,
2013-03-04 03:55:00,20.1,11.6,30.15,WSW,257,12.0,13.0,69,0.00,,,0.00,0,Wunderground v.1.15,2013-03-04 08:55:00,
2013-03-04 04:00:00,20.0,11.5,30.15,WSW,254,10.0,18.0,69,0.00,,,0.00,0,Wunderground v.1.15,2013-03-04 09:00:00,
2013-03-04 04:10:00,20.0,11.8,30.15,WSW,242,11.0,11.0,70,0.00,,,0.00,0,Wunderground v.1.15,2013-03-04 09:10:00,
2013-03-04 04:15:00,20.0,11.8,30.16,WNW,288,11.0,11.0,70,0.00,,,0.00,0,Wunderground v.1.15,2013-03-04 09:15:00,
2013-03-04 04:25:00,20.0,11.8,30.16,WSW,244,11.0,19.0,70,0.00,,,0.00,0,Wunderground v.1.15,2013-03-04 09:25:00,
2013-03-04 04:35:00,20.0,11.8,30.17,NE,52,12.0,19.0,70,0.00,,,0.00,0,Wunderground v.1.15,2013-03-04 09:35:00,
2013-03-04 04:40:00,20.1,11.6,30.17,NW,320,13.0,13.0,69,0.00,,,0.00,0,Wunderground v.1.15,2013-03-04 09:40:00,
2013-03-04 04:49:00,20.0,11.8,30.18,West,268,12.0,12.0,70,0.00,,,0.00,0,Wunderground v.1.15,2013-03-04 09:49:00,
2013-03-04 04:55:00,20.0,11.8,30.18,West,268,11.0,12.0,70,0.00,,,0.00,0,Wunderground v.1.15,2013-03-04 09:55:00,
2013-03-04 05:00:00,20.0,11.8,30.18,NW,323,11.0,11.0,70,0.00,,,0.00,0,Wunderground v.1.15,2013-03-04 10:00:00,
2013-03-04 05:10:00,19.8,11.6,30.18,NNW,336,10.0,12.0,70,0.00,,,0.00,0,Wunderground v.1.15,2013-03-04 10:10:00,
2013-03-04 05:15:00,19.8,11.6,30.18,SSW,213,11.0,12.0,70,0.00,,,0.00,0,Wunderground v.1.15,2013-03-04 10:15:00,
2013-03-04 05:20:00,19.8,11.9,30.18,West,262,10.0,13.0,71,0.00,,,0.00,0,Wunderground v.1.15,2013-03-04 10:20:00,
2013-03-04 05:29:00,19.8,11.9,30.18,NNW,328,10.0,12.0,71,0.00,,,0.00,0,Wunderground v.1.15,2013-03-04 10:29:00,
2013-03-04 05:35:00,19.7,11.8,30.19,WSW,248,10.0,16.0,71,0.00,,,0.00,0,Wunderground v.1.15,2013-03-04 10:35:00,
2013-03-04 05:40:00,19.7,11.8,30.18,NW,324,9.0,15.0,71,0.00,,,0.00,0,Wunderground v.1.15,2013-03-04 10:40:00,
2013-03-04 05:49:00,19.7,11.8,30.20,WNW,300,9.0,9.0,71,0.00,,,0.00,0,Wunderground v.1.15,2013-03-04 10:49:00,
2013-03-04 05:55:00,19.8,11.9,30.20,West,267,9.0,9.0,71,0.00,,,0.00,0,Wunderground v.1.15,2013-03-04 10:55:00,
2013-03-04 06:00:00,19.7,11.8,30.20,NNW,344,9.0,9.0,71,0.00,,,0.00,0,Wunderground v.1.15,2013-03-04 11:00:00,
2013-03-04 06:10:00,19.7,11.8,30.20,NW,306,8.0,8.0,71,0.00,,,0.00,0,Wunderground v.1.15,2013-03-04 11:10:00,
2013-03-04 06:20:00,19.7,11.8,30.21,WSW,237,8.0,8.0,71,0.00,,,0.00,0,Wunderground v.1.15,2013-03-04 11:20:00,
2013-03-04 06:25:00,19.7,11.8,30.21,WNW,303,7.0,8.0,71,0.00,,,0.00,0,Wunderground v.1.15,2013-03-04 11:25:00,
2013-03-04 06:30:00,19.7,11.8,30.21,North,351,7.0,12.0,71,0.00,,,0.00,0,Wunderground v.1.15,2013-03-04 11:30:00,
2013-03-04 06:39:00,19.7,11.8,30.21,WSW,257,7.0,12.0,71,0.00,,,0.00,0,Wunderground v.1.15,2013-03-04 11:39:00,
2013-03-04 06:45:00,19.7,11.5,30.21,NNW,337,7.0,12.0,70,0.00,,,0.00,0,Wunderground v.1.15,2013-03-04 11:45:00,
2013-03-04 06:50:00,19.7,11.5,30.21,West,265,8.0,8.0,70,0.00,,,0.00,0,Wunderground v.1.15,2013-03-04 11:50:00,
2013-03-04 06:55:00,19.7,11.5,30.22,NW,321,8.0,8.0,70,0.00,,,0.00,0,Wunderground v.1.15,2013-03-04 11:55:00,
2013-03-04 07:00:00,19.8,11.9,30.23,North,360,9.0,9.0,71,0.00,,,0.00,5,Wunderground v.1.15,2013-03-04 12:00:00,
2013-03-04 07:10:00,19.8,11.9,30.23,WSW,238,6.0,7.0,71,0.00,,,0.00,7,Wunderground v.1.15,2013-03-04 12:10:00,
2013-03-04 07:19:00,19.9,12.0,30.24,NW,307,8.0,8.0,71,0.00,,,0.00,11,Wunderground v.1.15,2013-03-04 12:19:00,
2013-03-04 07:25:00,19.9,12.0,30.24,WSW,252,8.0,8.0,71,0.00,,,0.00,12,Wunderground v.1.15,2013-03-04 12:25:00,
2013-03-04 07:30:00,20.0,12.1,30.24,NNW,333,7.0,7.0,71,0.00,,,0.00,12,Wunderground v.1.15,2013-03-04 12:30:00,
2013-03-04 07:39:00,20.2,12.3,30.25,WNW,288,7.0,7.0,71,0.00,,,0.00,14,Wunderground v.1.15,2013-03-04 12:39:00,
2013-03-04 07:45:00,20.3,12.4,30.25,NW,311,7.0,7.0,71,0.00,,,0.00,16,Wunderground v.1.15,2013-03-04 12:45:00,
2013-03-04 07:55:00,20.5,12.6,30.25,West,276,6.0,7.0,71,0.00,,,0.00,16,Wunderground v.1.15,2013-03-04 12:55:00,
2013-03-04 08:00:00,20.7,12.5,30.25,SW,223,7.0,8.0,70,0.00,,,0.00,18,Wunderground v.1.15,2013-03-04 13:00:00,
2013-03-04 08:10:00,21.1,12.5,30.25,West,259,7.0,7.0,69,0.00,,,0.00,19,Wunderground v.1.15,2013-03-04 13:10:00,
2013-03-04 08:15:00,21.4,12.8,30.26,NE,40,9.0,9.0,69,0.00,,,0.00,21,Wunderground v.1.15,2013-03-04 13:15:00,
2013-03-04 08:25:00,21.7,12.4,30.26,WSW,254,7.0,9.0,67,0.00,,,0.00,47,Wunderground v.1.15,2013-03-04 13:25:00,
2013-03-04 08:35:00,22.3,12.7,30.26,West,272,6.0,7.0,66,0.00,,,0.00,23,Wunderground v.1.15,2013-03-04 13:35:00,
2013-03-04 08:44:00,22.9,12.9,30.25,West,271,7.0,7.0,65,0.00,,,0.00,25,Wunderground v.1.15,2013-03-04 13:44:00,
2013-03-04 08:49:00,23.0,13.0,30.25,WNW,291,6.0,8.0,65,0.00,,,0.00,25,Wunderground v.1.15,2013-03-04 13:49:00,
2013-03-04 08:55:00,23.4,13.0,30.25,WNW,288,5.0,8.0,64,0.00,,,0.00,26,Wunderground v.1.15,2013-03-04 13:55:00,
2013-03-04 09:00:00,23.7,12.6,30.25,WNW,292,6.0,6.0,62,0.00,,,0.00,26,Wunderground v.1.15,2013-03-04 14:00:00,
2013-03-04 09:10:00,24.3,12.8,30.25,NW,310,5.0,5.0,61,0.00,,,0.00,30,Wunderground v.1.15,2013-03-04 14:10:00,
2013-03-04 09:19:00,24.8,13.2,30.25,SW,224,4.0,4.0,61,0.00,,,0.00,239,Wunderground v.1.15,2013-03-04 14:19:00,
2013-03-04 09:25:00,25.2,13.2,30.25,North,355,5.0,5.0,60,0.00,,,0.00,225,Wunderground v.1.15,2013-03-04 14:25:00,
2013-03-04 09:35:00,26.1,12.9,30.26,North,360,5.0,7.0,57,0.00,,,0.00,121,Wunderground v.1.15,2013-03-04 14:35:00,
2013-03-04 09:45:00,27.0,12.1,30.26,NNW,338,5.0,7.0,53,0.00,,,0.00,86,Wunderground v.1.15,2013-03-04 14:45:00,
2013-03-04 09:50:00,27.4,11.6,30.26,West,267,5.0,7.0,51,0.00,,,0.00,91,Wunderground v.1.15,2013-03-04 14:50:00,
2013-03-04 10:00:00,28.0,12.2,30.26,SSW,194,2.0,2.0,51,0.00,,,0.00,60,Wunderground v.1.15,2013-03-04 15:00:00,
2013-03-04 10:09:00,28.5,11.3,30.27,NW,314,1.0,1.0,48,0.00,,,0.00,47,Wunderground v.1.15,2013-03-04 15:09:00,
2013-03-04 10:15:00,29.0,10.8,30.27,East,96,2.0,2.0,46,0.00,,,0.00,190,Wunderground v.1.15,2013-03-04 15:15:00,
2013-03-04 10:25:00,30.1,10.3,30.27,WSW,242,4.0,4.0,43,0.00,,,0.00,47,Wunderground v.1.15,2013-03-04 15:25:00,
2013-03-04 10:35:00,30.7,9.7,30.28,South,173,1.0,7.0,41,0.00,,,0.00,77,Wunderground v.1.15,2013-03-04 15:35:00,
2013-03-04 10:40:00,31.2,10.2,30.28,West,275,2.0,2.0,41,0.00,,,0.00,46,Wunderground v.1.15,2013-03-04 15:40:00,
2013-03-04 10:45:00,31.6,9.4,30.28,West,277,2.0,7.0,39,0.00,,,0.00,91,Wunderground v.1.15,2013-03-04 15:45:00,
2013-03-04 10:50:00,32.1,9.3,30.28,NNW,329,1.0,7.0,38,0.00,,,0.00,121,Wunderground v.1.15,2013-03-04 15:50:00,
2013-03-04 11:00:00,33.0,8.3,30.28,WSW,253,1.0,7.0,35,0.00,,,0.00,53,Wunderground v.1.15,2013-03-04 16:00:00,
2013-03-04 11:10:00,33.6,7.5,30.28,West,260,3.0,3.0,33,0.00,,,0.00,51,Wunderground v.1.15,2013-03-04 16:10:00,
2013-03-04 11:15:00,33.9,7.8,30.28,WNW,284,3.0,7.0,33,0.00,,,0.00,142,Wunderground v.1.15,2013-03-04 16:15:00,
2013-03-04 11:20:00,34.3,9.4,30.28,West,267,5.0,5.0,35,0.00,,,0.00,605,Wunderground v.1.15,2013-03-04 16:20:00,
2013-03-04 11:30:00,34.8,7.2,30.28,WNW,300,3.0,3.0,31,0.00,,,0.00,295,Wunderground v.1.15,2013-03-04 16:30:00,
2013-03-04 11:35:00,35.3,9.0,30.28,North,11,2.0,9.0,33,0.00,,,0.00,134,Wunderground v.1.15,2013-03-04 16:35:00,
2013-03-04 11:44:00,36.2,8.4,30.29,NNW,339,5.0,5.0,31,0.00,,,0.00,603,Wunderground v.1.15,2013-03-04 16:44:00,
2013-03-04 11:55:00,36.8,8.2,30.29,WNW,295,4.0,7.0,30,0.00,,,0.00,258,Wunderground v.1.15,2013-03-04 16:55:00,
2013-03-04 12:00:00,37.2,7.8,30.29,NNW,333,4.0,4.0,29,0.00,,,0.00,591,Wunderground v.1.15,2013-03-04 17:00:00,
2013-03-04 12:10:00,37.9,9.9,30.28,NNW,342,3.0,7.0,31,0.00,,,0.00,773,Wunderground v.1.15,2013-03-04 17:10:00,
2013-03-04 12:20:00,38.3,10.3,30.28,WNW,295,3.0,3.0,31,0.00,,,0.00,680,Wunderground v.1.15,2013-03-04 17:20:00,
2013-03-04 12:30:00,39.5,10.6,30.28,West,271,2.0,2.0,30,0.00,,,0.00,541,Wunderground v.1.15,2013-03-04 17:30:00,
2013-03-04 12:35:00,39.9,10.2,30.28,NW,317,2.0,7.0,29,0.00,,,0.00,504,Wunderground v.1.15,2013-03-04 17:35:00,
2013-03-04 12:45:00,41.3,12.1,30.28,WSW,241,0.0,7.0,30,0.00,,,0.00,656,Wunderground v.1.15,2013-03-04 17:45:00,
2013-03-04 12:50:00,42.2,12.9,30.27,South,190,1.0,7.0,30,0.00,,,0.00,817,Wunderground v.1.15,2013-03-04 17:50:00,
2013-03-04 12:55:00,43.3,12.3,30.27,South,188,2.0,7.0,28,0.00,,,0.00,821,Wunderground v.1.15,2013-03-04 17:55:00,
2013-03-04 13:00:00,44.0,12.1,30.26,SSE,158,2.0,2.0,27,0.00,,,0.00,819,Wunderground v.1.15,2013-03-04 18:00:00,
2013-03-04 13:09:00,44.9,13.7,30.26,SW,234,2.0,7.0,28,0.00,,,0.00,819,Wunderground v.1.15,2013-03-04 18:09:00,
2013-03-04 13:15:00,45.2,14.0,30.26,SW,235,2.0,7.0,28,0.00,,,0.00,823,Wunderground v.1.15,2013-03-04 18:15:00,
2013-03-04 13:25:00,45.5,12.5,30.25,WNW,283,2.0,3.0,26,0.00,,,0.00,809,Wunderground v.1.15,2013-03-04 18:25:00,
2013-03-04 13:30:00,45.7,14.4,30.25,West,274,2.0,2.0,28,0.00,,,0.00,821,Wunderground v.1.15,2013-03-04 18:30:00,
2013-03-04 13:40:00,46.3,14.1,30.25,WSW,256,2.0,2.0,27,0.00,,,0.00,802,Wunderground v.1.15,2013-03-04 18:40:00,
2013-03-04 13:45:00,46.8,13.7,30.25,South,169,1.0,7.0,26,0.00,,,0.00,791,Wunderground v.1.15,2013-03-04 18:45:00,
2013-03-04 13:50:00,47.3,14.1,30.24,SW,230,1.0,1.0,26,0.00,,,0.00,782,Wunderground v.1.15,2013-03-04 18:50:00,
2013-03-04 13:55:00,47.7,13.5,30.24,SSW,204,1.0,4.0,25,0.00,,,0.00,773,Wunderground v.1.15,2013-03-04 18:55:00,
2013-03-04 14:00:00,48.1,14.8,30.24,West,279,1.0,7.0,26,0.00,,,0.00,768,Wunderground v.1.15,2013-03-04 19:00:00,
2013-03-04 14:10:00,47.8,13.6,30.23,North,360,3.0,3.0,25,0.00,,,0.00,754,Wunderground v.1.15,2013-03-04 19:10:00,
2013-03-04 14:20:00,47.5,10.5,30.23,ESE,123,2.0,2.0,22,0.00,,,0.00,737,Wunderground v.1.15,2013-03-04 19:20:00,
2013-03-04 14:30:00,47.7,12.6,30.23,SSW,211,2.0,2.0,24,0.00,,,0.00,721,Wunderground v.1.15,2013-03-04 19:30:00,
2013-03-04 14:40:00,47.5,10.5,30.24,North,355,2.0,2.0,22,0.00,,,0.00,701,Wunderground v.1.15,2013-03-04 19:40:00,
2013-03-04 14:49:00,47.5,12.4,30.24,NE,38,1.0,7.0,24,0.00,,,0.00,687,Wunderground v.1.15,2013-03-04 19:49:00,
2013-03-04 14:55:00,48.2,12.1,30.23,North,355,1.0,7.0,23,0.00,,,0.00,673,Wunderground v.1.15,2013-03-04 19:55:00,
2013-03-04 15:00:00,48.7,12.5,30.23,NNE,22,1.0,1.0,23,0.00,,,0.00,659,Wunderground v.1.15,2013-03-04 20:00:00,
2013-03-04 15:10:00,49.2,15.7,30.23,West,259,2.0,7.0,26,0.00,,,0.00,631,Wunderground v.1.15,2013-03-04 20:10:00,
2013-03-04 15:20:00,48.8,15.4,30.23,NNW,331,4.0,7.0,26,0.00,,,0.00,603,Wunderground v.1.15,2013-03-04 20:20:00,
2013-03-04 15:25:00,48.8,14.5,30.23,West,274,2.0,7.0,25,0.00,,,0.00,589,Wunderground v.1.15,2013-03-04 20:25:00,
2013-03-04 15:30:00,49.0,14.7,30.23,West,275,1.0,7.0,25,0.00,,,0.00,575,Wunderground v.1.15,2013-03-04 20:30:00,
2013-03-04 15:40:00,48.7,14.4,30.23,West,264,3.0,7.0,25,0.00,,,0.00,547,Wunderground v.1.15,2013-03-04 20:40:00,
2013-03-04 15:45:00,48.4,14.1,30.23,West,267,3.0,7.0,25,0.00,,,0.00,533,Wunderground v.1.15,2013-03-04 20:45:00,
2013-03-04 15:50:00,48.2,14.9,30.23,West,275,4.0,7.0,26,0.00,,,0.00,517,Wunderground v.1.15,2013-03-04 20:50:00,
2013-03-04 16:00:00,47.8,13.6,30.23,SW,232,3.0,3.0,25,0.00,,,0.00,483,Wunderground v.1.15,2013-03-04 21:00:00,
2013-03-04 16:10:00,47.8,12.7,30.23,West,265,3.0,7.0,24,0.00,,,0.00,445,Wunderground v.1.15,2013-03-04 21:10:00,
2013-03-04 16:15:00,47.7,12.6,30.23,SW,234,3.0,7.0,24,0.00,,,0.00,434,Wunderground v.1.15,2013-03-04 21:15:00,
2013-03-04 16:25:00,47.2,11.2,30.23,WSW,241,4.0,7.0,23,0.00,,,0.00,399,Wunderground v.1.15,2013-03-04 21:25:00,
2013-03-04 16:35:00,47.1,13.0,30.23,NW,321,3.0,7.0,25,0.00,,,0.00,362,Wunderground v.1.15,2013-03-04 21:35:00,
2013-03-04 16:45:00,47.2,13.1,30.23,West,261,2.0,7.0,25,0.00,,,0.00,329,Wunderground v.1.15,2013-03-04 21:45:00,
2013-03-04 16:50:00,47.1,13.9,30.23,WNW,294,3.0,3.0,26,0.00,,,0.00,313,Wunderground v.1.15,2013-03-04 21:50:00,
2013-03-04 17:00:00,47.3,15.0,30.23,WSW,254,1.0,7.0,27,0.00,,,0.00,274,Wunderground v.1.15,2013-03-04 22:00:00,
2013-03-04 17:10:00,47.4,15.9,30.22,West,266,1.0,7.0,28,0.00,,,0.00,239,Wunderground v.1.15,2013-03-04 22:10:00,
2013-03-04 17:15:00,47.3,15.8,30.22,West,259,1.0,7.0,28,0.00,,,0.00,220,Wunderground v.1.15,2013-03-04 22:15:00,
2013-03-04 17:25:00,47.3,16.6,30.23,West,265,1.0,7.0,29,0.00,,,0.00,186,Wunderground v.1.15,2013-03-04 22:25:00,
2013-03-04 17:30:00,47.4,16.7,30.23,SSW,198,1.0,7.0,29,0.00,,,0.00,171,Wunderground v.1.15,2013-03-04 22:30:00,
2013-03-04 17:35:00,47.4,16.7,30.23,SSW,199,1.0,7.0,29,0.00,,,0.00,153,Wunderground v.1.15,2013-03-04 22:35:00,
2013-03-04 17:40:00,47.4,17.5,30.24,SW,225,1.0,7.0,30,0.00,,,0.00,128,Wunderground v.1.15,2013-03-04 22:40:00,
2013-03-04 17:50:00,46.6,15.2,30.24,West,264,1.0,1.0,28,0.00,,,0.00,46,Wunderground v.1.15,2013-03-04 22:50:00,
2013-03-04 17:55:00,46.1,13.9,30.24,West,263,1.0,7.0,27,0.00,,,0.00,63,Wunderground v.1.15,2013-03-04 22:55:00,
2013-03-04 18:00:00,45.6,14.3,30.24,West,263,0.0,7.0,28,0.00,,,0.00,46,Wunderground v.1.15,2013-03-04 23:00:00,
2013-03-04 18:09:00,44.7,11.9,30.24,NNW,333,1.0,7.0,26,0.00,,,0.00,16,Wunderground v.1.15,2013-03-04 23:09:00,
2013-03-04 18:15:00,43.8,10.2,30.24,WNW,286,2.0,7.0,25,0.00,,,0.00,9,Wunderground v.1.15,2013-03-04 23:15:00,
2013-03-04 18:20:00,43.3,9.8,30.24,NW,311,2.0,2.0,25,0.00,,,0.00,5,Wunderground v.1.15,2013-03-04 23:20:00,
2013-03-04 18:29:00,42.5,9.1,30.24,NW,326,2.0,2.0,25,0.00,,,0.00,0,Wunderground v.1.15,2013-03-04 23:29:00,
2013-03-04 18:35:00,42.1,9.6,30.24,NW,311,2.0,4.0,26,0.00,,,0.00,0,Wunderground v.1.15,2013-03-04 23:35:00,
2013-03-04 18:45:00,41.5,9.1,30.24,NW,315,4.0,7.0,26,0.00,,,0.00,0,Wunderground v.1.15,2013-03-04 23:45:00,
2013-03-04 18:50:00,41.3,9.8,30.25,North,350,5.0,5.0,27,0.00,,,0.00,0,Wunderground v.1.15,2013-03-04 23:50:00,
2013-03-04 19:00:00,41.3,9.8,30.25,NW,313,6.0,6.0,27,0.00,,,0.00,0,Wunderground v.1.15,2013-03-05 00:00:00,
2013-03-04 19:10:00,41.3,11.4,30.25,NW,307,3.0,7.0,29,0.00,,,0.00,0,Wunderground v.1.15,2013-03-05 00:10:00,
2013-03-04 19:15:00,41.3,10.6,30.25,WSW,248,2.0,7.0,28,0.00,,,0.00,0,Wunderground v.1.15,2013-03-05 00:15:00,
2013-03-04 19:25:00,41.4,12.2,30.25,NW,310,1.0,7.0,30,0.00,,,0.00,0,Wunderground v.1.15,2013-03-05 00:25:00,
2013-03-04 19:30:00,41.4,11.5,30.25,WNW,288,1.0,1.0,29,0.00,,,0.00,0,Wunderground v.1.15,2013-03-05 00:30:00,
2013-03-04 19:40:00,41.2,12.8,30.25,WNW,296,0.0,7.0,31,0.00,,,0.00,0,Wunderground v.1.15,2013-03-05 00:40:00,
2013-03-04 19:50:00,40.9,13.3,30.25,NNW,339,1.0,1.0,32,0.00,,,0.00,0,Wunderground v.1.15,2013-03-05 00:50:00,
2013-03-04 19:55:00,40.8,12.5,30.25,WNW,287,1.0,7.0,31,0.00,,,0.00,0,Wunderground v.1.15,2013-03-05 00:55:00,
2013-03-04 20:00:00,40.7,13.1,30.24,WNW,288,0.0,7.0,32,0.00,,,0.00,0,Wunderground v.1.15,2013-03-05 01:00:00,
2013-03-04 20:10:00,40.3,14.1,30.24,WNW,288,0.0,7.0,34,0.00,,,0.00,0,Wunderground v.1.15,2013-03-05 01:10:00,
2013-03-04 20:19:00,39.8,13.7,30.24,NW,321,0.0,7.0,34,0.00,,,0.00,0,Wunderground v.1.15,2013-03-05 01:19:00,
2013-03-04 20:25:00,39.7,14.9,30.24,NW,321,0.0,7.0,36,0.00,,,0.00,0,Wunderground v.1.15,2013-03-05 01:25:00,
2013-03-04 20:35:00,39.0,15.5,30.24,NW,321,0.0,7.0,38,0.00,,,0.00,0,Wunderground v.1.15,2013-03-05 01:35:00,
2013-03-04 20:40:00,38.7,15.2,30.24,NW,321,0.0,7.0,38,0.00,,,0.00,0,Wunderground v.1.15,2013-03-05 01:40:00,
2013-03-04 20:50:00,38.3,16.6,30.24,NW,321,0.0,7.0,41,0.00,,,0.00,0,Wunderground v.1.15,2013-03-05 01:50:00,
2013-03-04 20:55:00,38.1,15.3,30.24,NW,321,0.0,7.0,39,0.00,,,0.00,0,Wunderground v.1.15,2013-03-05 01:55:00,
2013-03-04 21:00:00,38.1,15.3,30.24,NW,321,0.0,7.0,39,0.00,,,0.00,0,Wunderground v.1.15,2013-03-05 02:00:00,
2013-03-04 21:09:00,38.4,15.6,30.25,NW,321,0.0,7.0,39,0.00,,,0.00,0,Wunderground v.1.15,2013-03-05 02:09:00,
2013-03-04 21:15:00,38.6,16.3,30.25,NW,321,0.0,7.0,40,0.00,,,0.00,0,Wunderground v.1.15,2013-03-05 02:15:00,
2013-03-04 21:20:00,38.8,16.5,30.25,NW,321,0.0,7.0,40,0.00,,,0.00,0,Wunderground v.1.15,2013-03-05 02:20:00,
2013-03-04 21:29:00,38.7,15.8,30.24,NW,321,0.0,7.0,39,0.00,,,0.00,0,Wunderground v.1.15,2013-03-05 02:29:00,
2013-03-04 21:35:00,38.7,15.8,30.24,NW,321,0.0,7.0,39,0.00,,,0.00,0,Wunderground v.1.15,2013-03-05 02:35:00,
2013-03-04 21:40:00,38.7,15.8,30.24,NW,321,0.0,7.0,39,0.00,,,0.00,0,Wunderground v.1.15,2013-03-05 02:40:00,
2013-03-04 21:50:00,38.6,17.5,30.24,NW,321,0.0,7.0,42,0.00,,,0.00,0,Wunderground v.1.15,2013-03-05 02:50:00,
2013-03-04 22:00:00,38.4,16.7,30.23,NW,321,0.0,7.0,41,0.00,,,0.00,0,Wunderground v.1.15,2013-03-05 03:00:00,
2013-03-04 22:10:00,38.3,17.2,30.23,NW,321,0.0,7.0,42,0.00,,,0.00,0,Wunderground v.1.15,2013-03-05 03:10:00,
2013-03-04 22:19:00,38.1,17.5,30.24,NW,321,0.0,7.0,43,0.00,,,0.00,0,Wunderground v.1.15,2013-03-05 03:19:00,
2013-03-04 22:25:00,38.1,18.1,30.23,NW,321,0.0,7.0,44,0.00,,,0.00,0,Wunderground v.1.15,2013-03-05 03:25:00,
2013-03-04 22:30:00,38.0,16.9,30.23,NW,321,0.0,7.0,42,0.00,,,0.00,0,Wunderground v.1.15,2013-03-05 03:30:00,
2013-03-04 22:40:00,37.9,18.4,30.22,NW,321,0.0,7.0,45,0.00,,,0.00,0,Wunderground v.1.15,2013-03-05 03:40:00,
2013-03-04 22:45:00,37.8,17.8,30.23,NW,321,0.0,7.0,44,0.00,,,0.00,0,Wunderground v.1.15,2013-03-05 03:45:00,
2013-03-04 22:50:00,37.7,17.2,30.22,NW,321,0.0,7.0,43,0.00,,,0.00,0,Wunderground v.1.15,2013-03-05 03:50:00,
2013-03-04 23:00:00,37.5,17.0,30.23,NW,321,0.0,7.0,43,0.00,,,0.00,0,Wunderground v.1.15,2013-03-05 04:00:00,
2013-03-04 23:10:00,37.2,16.7,30.23,NW,321,0.0,7.0,43,0.00,,,0.00,0,Wunderground v.1.15,2013-03-05 04:10:00,
2013-03-04 23:19:00,37.0,16.5,30.23,NW,321,0.0,7.0,43,0.00,,,0.00,0,Wunderground v.1.15,2013-03-05 04:19:00,
2013-03-04 23:25:00,37.0,17.1,30.23,NW,321,0.0,7.0,44,0.00,,,0.00,0,Wunderground v.1.15,2013-03-05 04:25:00,
2013-03-04 23:30:00,36.9,16.5,30.23,NW,321,0.0,7.0,43,0.00,,,0.00,0,Wunderground v.1.15,2013-03-05 04:30:00,
2013-03-04 23:40:00,37.1,16.1,30.23,NNW,333,0.0,7.0,42,0.00,,,0.00,0,Wunderground v.1.15,2013-03-05 04:40:00,
2013-03-04 23:50:00,38.0,16.4,30.22,NW,323,0.0,7.0,41,0.00,,,0.00,0,Wunderground v.1.15,2013-03-05 04:50:00,
2013-03-04 23:55:00,38.6,16.9,30.22,NW,323,0.0,7.0,41,0.00,,,0.00,0,Wunderground v.1.15,2013-03-05 04:55:00,